createdAt,value
2024-02-03T00:00:52.885Z,100379.61
2024-02-03T00:03:19.750Z,100378.73
2024-02-03T00:05:46.683Z,100370.81
2024-02-03T00:08:13.918Z,100365.73
2024-02-03T00:10:40.989Z,100357.27
2024-02-03T00:13:07.822Z,100351.41
2024-02-03T00:15:34.640Z,100346.95
2024-02-03T00:18:01.846Z,100343.95
2024-02-03T00:20:28.673Z,100346.30
2024-02-03T00:22:55.798Z,100342.90
2024-02-03T00:25:22.428Z,100339.23
2024-02-03T00:27:49.214Z,100337.16
2024-02-03T00:30:16.046Z,100332.86
2024-02-03T00:32:43.124Z,100323.30
2024-02-03T00:35:09.856Z,100318.06
2024-02-03T00:37:36.596Z,100317.23
2024-02-03T00:40:04.153Z,100317.35
2024-02-03T00:42:31.297Z,100311.95
2024-02-03T00:44:57.872Z,100306.67
2024-02-03T00:47:24.465Z,100306.52
2024-02-03T00:49:51.229Z,100305.77
2024-02-03T00:52:17.878Z,100300.05
2024-02-03T00:54:44.572Z,100297.80
2024-02-03T00:57:11.288Z,100295.80
2024-02-03T00:59:38.087Z,100288.62
2024-02-03T01:02:04.923Z,100279.85
2024-02-03T01:04:32.138Z,100283.87
2024-02-03T01:07:02.012Z,100283.23
2024-02-03T01:09:28.857Z,100284.59
2024-02-03T01:11:55.607Z,100281.30
2024-02-03T01:14:22.515Z,100286.60
2024-02-03T01:16:49.371Z,100291.13
2024-02-03T01:19:16.464Z,100289.73
2024-02-03T01:21:43.352Z,100285.55
2024-02-03T01:24:10.311Z,100278.93
2024-02-03T01:26:37.034Z,100270.35
2024-02-03T01:29:03.671Z,100255.55
2024-02-03T01:31:30.393Z,100246.20
2024-02-03T01:33:58.216Z,100239.34
2024-02-03T01:36:24.924Z,100228.52
2024-02-03T01:38:52.974Z,100226.04
2024-02-03T01:41:19.798Z,100217.97
2024-02-03T01:43:46.618Z,100212.98
2024-02-03T01:46:13.461Z,100208.08
2024-02-03T01:48:40.607Z,100205.41
2024-02-03T01:51:07.666Z,100201.25
2024-02-03T01:53:34.378Z,100192.10
2024-02-03T01:56:00.884Z,100184.27
2024-02-03T01:58:27.472Z,100179.80
2024-02-03T02:00:54.403Z,100170.19
2024-02-03T02:03:21.216Z,100163.55
2024-02-03T02:05:47.929Z,100160.05
2024-02-03T02:08:15.219Z,100151.58
2024-02-03T02:10:42.025Z,100141.53
2024-02-03T02:13:08.871Z,100140.81
2024-02-03T02:15:35.760Z,100137.96
2024-02-03T02:18:02.854Z,100136.74
2024-02-03T02:20:29.840Z,100138.59
2024-02-03T02:22:56.635Z,100141.63
2024-02-03T02:25:23.527Z,100143.33
2024-02-03T02:27:53.948Z,100139.17
2024-02-03T02:30:21.600Z,100130.45
2024-02-03T02:32:48.586Z,100131.96
2024-02-03T02:35:15.477Z,100135.13
2024-02-03T02:37:42.276Z,100129.98
2024-02-03T02:40:09.609Z,100126.98
2024-02-03T02:42:36.363Z,100127.27
2024-02-03T02:45:03.385Z,100121.27
2024-02-03T02:47:31.320Z,100121.83
2024-02-03T02:49:58.041Z,100122.85
2024-02-03T02:52:24.804Z,100119.83
2024-02-03T02:54:51.704Z,100110.80
2024-02-03T02:57:18.529Z,100109.05
2024-02-03T02:59:45.473Z,100099.95
2024-02-03T03:02:12.320Z,100089.23
2024-02-03T03:04:39.161Z,100084.96
2024-02-03T03:07:05.903Z,100079.20
2024-02-03T03:09:32.685Z,100075.28
2024-02-03T03:11:59.342Z,100070.49
2024-02-03T03:14:25.920Z,100063.47
2024-02-03T03:16:53.129Z,100062.66
2024-02-03T03:19:19.854Z,100060.17
2024-02-03T03:21:46.845Z,100054.52
2024-02-03T03:24:13.753Z,100044.37
2024-02-03T03:26:43.375Z,100037.00
2024-02-03T03:29:13.458Z,100033.85
2024-02-03T03:31:42.269Z,100021.17
2024-02-03T03:34:09.011Z,100010.65
2024-02-03T03:36:35.757Z,100004.63
2024-02-03T03:39:02.526Z,99999.70
2024-02-03T03:41:29.226Z,99996.27
2024-02-03T03:43:55.721Z,99989.46
2024-02-03T03:46:22.455Z,99993.06
2024-02-03T03:48:49.132Z,99997.69
2024-02-03T03:51:15.931Z,99999.23
2024-02-03T03:53:42.727Z,99999.60
2024-02-03T03:56:10.575Z,99995.08
2024-02-03T03:58:37.234Z,99987.53
2024-02-03T04:01:04.386Z,99983.92
2024-02-03T04:03:31.220Z,99985.95
2024-02-03T04:05:57.860Z,99978.88
2024-02-03T04:08:25.178Z,99973.16
2024-02-03T04:10:51.852Z,99970.83
2024-02-03T04:13:18.588Z,99954.37
2024-02-03T04:15:45.968Z,99949.46
2024-02-03T04:18:12.752Z,99947.33
2024-02-03T04:20:39.691Z,99940.14
2024-02-03T04:23:06.406Z,99936.31
2024-02-03T04:25:33.172Z,99930.27
2024-02-03T04:27:59.818Z,99931.54
2024-02-03T04:30:26.588Z,99925.74
2024-02-03T04:32:53.679Z,99924.80
2024-02-03T04:35:20.358Z,99923.04
2024-02-03T04:37:47.084Z,99913.59
2024-02-03T04:40:13.604Z,99901.31
2024-02-03T04:42:40.356Z,99891.54
2024-02-03T04:45:08.039Z,99896.17
2024-02-03T04:47:34.869Z,99893.84
2024-02-03T04:50:02.328Z,99883.77
2024-02-03T04:52:29.334Z,99871.31
2024-02-03T04:54:56.082Z,99861.88
2024-02-03T04:57:22.954Z,99852.87
2024-02-03T04:59:49.645Z,99845.17
2024-02-03T05:02:16.148Z,99837.69
2024-02-03T05:04:43.320Z,99836.98
2024-02-03T05:07:09.959Z,99836.47
2024-02-03T05:09:36.662Z,99829.56
2024-02-03T05:12:03.668Z,99822.33
2024-02-03T05:14:30.559Z,99812.83
2024-02-03T05:16:57.015Z,99804.75
2024-02-03T05:19:26.395Z,99796.73
2024-02-03T05:21:53.227Z,99789.13
2024-02-03T05:24:19.827Z,99779.19
2024-02-03T05:26:46.506Z,99772.09
2024-02-03T05:29:13.311Z,99768.65
2024-02-03T05:31:39.786Z,99769.63
2024-02-03T05:34:06.575Z,99758.82
2024-02-03T05:36:33.293Z,99755.91
2024-02-03T05:38:59.991Z,99752.51
2024-02-03T05:41:26.544Z,99750.78
2024-02-03T05:43:53.024Z,99752.77
2024-02-03T05:46:19.513Z,99749.60
2024-02-03T05:48:46.180Z,99739.09
2024-02-03T05:51:13.367Z,99733.17
2024-02-03T05:53:40.353Z,99734.69
2024-02-03T05:56:07.689Z,99726.23
2024-02-03T05:58:35.213Z,99718.89
2024-02-03T06:01:01.932Z,99724.28
2024-02-03T06:03:29.037Z,99727.03
2024-02-03T06:06:12.790Z,99717.96
2024-02-03T06:08:42.359Z,99719.83
2024-02-03T06:11:09.041Z,99717.48
2024-02-03T06:13:35.772Z,99714.09
2024-02-03T06:16:03.433Z,99721.14
2024-02-03T06:18:30.605Z,99715.88
2024-02-03T06:20:57.310Z,99711.64
2024-02-03T06:23:23.815Z,99704.17
2024-02-03T06:25:50.386Z,99724.02
2024-02-03T06:28:17.291Z,99718.99
2024-02-03T06:30:44.279Z,99704.55
2024-02-03T06:33:11.278Z,99708.29
2024-02-03T06:35:39.773Z,99710.43
2024-02-03T06:38:08.201Z,99702.96
2024-02-03T06:40:34.848Z,99692.75
2024-02-03T06:43:01.524Z,99689.88
2024-02-03T06:45:28.808Z,99682.27
2024-02-03T06:47:55.825Z,99675.19
2024-02-03T06:50:22.454Z,99660.64
2024-02-03T06:52:49.220Z,99651.52
2024-02-03T06:55:15.937Z,99645.58
2024-02-03T06:57:42.715Z,99645.05
2024-02-03T07:00:10.803Z,99641.29
2024-02-03T07:02:37.595Z,99639.70
2024-02-03T07:05:04.675Z,99638.46
2024-02-03T07:07:31.498Z,99639.13
2024-02-03T07:09:59.607Z,99630.66
2024-02-03T07:12:27.246Z,99624.97
2024-02-03T07:14:54.255Z,99614.85
2024-02-03T07:17:21.148Z,99602.98
2024-02-03T07:19:47.999Z,99586.91
2024-02-03T07:22:14.603Z,99584.09
2024-02-03T07:24:41.281Z,99588.38
2024-02-03T07:27:08.057Z,99584.13
2024-02-03T07:29:34.738Z,99582.19
2024-02-03T07:32:03.707Z,99584.39
2024-02-03T07:34:30.647Z,99583.32
2024-02-03T07:36:57.735Z,99583.42
2024-02-03T07:39:24.621Z,99580.74
2024-02-03T07:41:51.388Z,99576.66
2024-02-03T07:44:18.076Z,99568.49
2024-02-03T07:46:44.618Z,99559.71
2024-02-03T07:49:11.389Z,99557.32
2024-02-03T07:51:38.194Z,99546.21
2024-02-03T07:54:05.197Z,99547.63
2024-02-03T07:56:31.931Z,99547.82
2024-02-03T07:58:58.525Z,99542.51
2024-02-03T08:01:25.297Z,99536.60
2024-02-03T08:03:52.509Z,99545.02
2024-02-03T08:06:19.431Z,99532.05
2024-02-03T08:08:46.321Z,99525.32
2024-02-03T08:11:12.946Z,99513.94
2024-02-03T08:13:39.701Z,99504.60
2024-02-03T08:16:07.604Z,99510.94
2024-02-03T08:18:34.794Z,99506.20
2024-02-03T08:21:01.712Z,99509.48
2024-02-03T08:23:28.753Z,99506.44
2024-02-03T08:25:55.994Z,99500.66
2024-02-03T08:28:22.690Z,99503.25
2024-02-03T08:30:51.644Z,99497.50
2024-02-03T08:33:18.689Z,99490.98
2024-02-03T08:35:45.822Z,99480.02
2024-02-03T08:38:13.140Z,99470.55
2024-02-03T08:40:39.979Z,99470.46
2024-02-03T08:43:06.758Z,99469.16
2024-02-03T08:45:33.434Z,99466.16
2024-02-03T08:48:00.212Z,99457.75
2024-02-03T08:50:26.892Z,99450.41
2024-02-03T08:52:53.692Z,99446.03
2024-02-03T08:55:20.335Z,99445.05
2024-02-03T08:57:47.642Z,99442.77
2024-02-03T09:00:15.033Z,99441.38
2024-02-03T09:02:41.723Z,99438.39
2024-02-03T09:05:08.663Z,99423.55
2024-02-03T09:07:35.584Z,99419.11
2024-02-03T09:10:03.956Z,99416.50
2024-02-03T09:12:31.752Z,99409.77
2024-02-03T09:14:58.564Z,99400.73
2024-02-03T09:17:25.301Z,99398.30
2024-02-03T09:19:52.390Z,99395.79
2024-02-03T09:22:19.282Z,99393.33
2024-02-03T09:24:45.974Z,99384.91
2024-02-03T09:27:12.837Z,99378.31
2024-02-03T09:29:41.364Z,99372.55
2024-02-03T09:32:08.608Z,99367.02
2024-02-03T09:36:24.866Z,99358.16
2024-02-03T09:38:51.725Z,99353.90
2024-02-03T09:41:18.205Z,99348.09
2024-02-03T09:43:44.909Z,99342.70
2024-02-03T09:46:11.670Z,99339.52
2024-02-03T09:48:38.654Z,99340.92
2024-02-03T09:51:06.876Z,99338.20
2024-02-03T09:53:34.050Z,99333.09
2024-02-03T09:56:00.659Z,99332.64
2024-02-03T09:58:27.395Z,99331.77
2024-02-03T10:00:54.296Z,99320.35
2024-02-03T10:03:21.273Z,99320.23
2024-02-03T10:05:51.658Z,99319.66
2024-02-03T10:08:18.993Z,99312.64
2024-02-03T10:10:52.261Z,99311.61
2024-02-03T10:13:18.991Z,99310.57
2024-02-03T10:15:45.782Z,99305.14
2024-02-03T10:18:13.191Z,99296.79
2024-02-03T10:20:39.854Z,99293.95
2024-02-03T10:23:07.613Z,99279.78
2024-02-03T10:25:35.668Z,99278.81
2024-02-03T10:28:03.980Z,99278.05
2024-02-03T10:30:37.108Z,99268.75
2024-02-03T10:33:05.023Z,99262.53
2024-02-03T10:35:36.213Z,99257.39
2024-02-03T10:38:03.028Z,99254.33
2024-02-03T10:40:34.387Z,99250.15
2024-02-03T10:43:02.956Z,99250.42
2024-02-03T10:45:31.336Z,99248.33
2024-02-03T10:48:01.973Z,99244.55
2024-02-03T10:50:32.504Z,99246.67
2024-02-03T10:53:26.025Z,99247.61
2024-02-03T10:55:55.705Z,99246.55
2024-02-03T10:58:25.667Z,99245.61
2024-02-03T11:00:53.845Z,99240.36
2024-02-03T11:03:21.981Z,99237.34
2024-02-03T11:05:58.002Z,99234.34
2024-02-03T11:08:24.511Z,99238.34
2024-02-03T11:10:51.210Z,99233.39
2024-02-03T11:13:21.943Z,99227.92
2024-02-03T11:15:49.034Z,99222.38
2024-02-03T11:18:16.135Z,99218.00
2024-02-03T11:20:43.237Z,99210.12
2024-02-03T11:23:12.516Z,99219.05
2024-02-03T11:25:42.680Z,99222.06
2024-02-03T11:28:09.377Z,99221.44
2024-02-03T11:30:35.930Z,99221.31
2024-02-03T11:33:03.203Z,99219.00
2024-02-03T11:35:29.981Z,99203.65
2024-02-03T11:38:10.367Z,99206.06
2024-02-03T11:40:44.388Z,99210.83
2024-02-03T11:43:12.787Z,99214.02
2024-02-03T11:45:45.099Z,99213.39
2024-02-03T11:48:12.508Z,99208.52
2024-02-03T11:50:40.396Z,99212.45
2024-02-03T11:53:07.194Z,99204.30
2024-02-03T11:55:34.967Z,99200.59
2024-02-03T11:58:01.681Z,99197.76
2024-02-03T12:00:28.502Z,99208.21
2024-02-03T12:02:55.570Z,99192.78
2024-02-03T12:05:22.474Z,99188.90
2024-02-03T12:07:49.442Z,99186.20
2024-02-03T12:10:16.048Z,99179.63
2024-02-03T12:12:42.802Z,99180.56
2024-02-03T12:15:10.792Z,99185.52
2024-02-03T12:17:37.720Z,99187.05
2024-02-03T12:20:19.850Z,99191.54
2024-02-03T12:22:46.482Z,99187.58
2024-02-03T12:25:13.251Z,99186.05
2024-02-03T12:27:40.015Z,99177.16
2024-02-03T12:30:19.927Z,99172.35
2024-02-03T12:32:47.736Z,99168.32
2024-02-03T12:35:14.915Z,99169.77
2024-02-03T12:37:41.795Z,99171.27
2024-02-03T12:40:12.503Z,99160.06
2024-02-03T12:42:39.649Z,99159.83
2024-02-03T12:45:07.386Z,99163.71
2024-02-03T12:47:37.138Z,99160.98
2024-02-03T12:50:04.317Z,99160.30
2024-02-03T12:52:31.321Z,99164.77
2024-02-03T12:54:58.052Z,99165.29
2024-02-03T12:57:24.882Z,99161.46
2024-02-03T12:59:51.748Z,99165.06
2024-02-03T13:02:18.720Z,99169.27
2024-02-03T13:04:45.619Z,99170.75
2024-02-03T13:07:16.121Z,99164.77
2024-02-03T13:09:43.446Z,99169.30
2024-02-03T13:12:10.170Z,99170.30
2024-02-03T13:14:37.039Z,99168.94
2024-02-03T13:17:04.602Z,99174.63
2024-02-03T13:19:31.404Z,99174.27
2024-02-03T13:21:58.200Z,99172.58
2024-02-03T13:24:26.217Z,99171.52
2024-02-03T13:26:52.990Z,99176.38
2024-02-03T13:29:19.983Z,99176.56
2024-02-03T13:31:46.686Z,99179.69
2024-02-03T13:34:18.279Z,99174.73
2024-02-03T13:36:47.393Z,99178.44
2024-02-03T13:39:14.538Z,99175.20
2024-02-03T13:41:41.297Z,99172.49
2024-02-03T13:44:10.283Z,99172.86
2024-02-03T13:46:37.724Z,99172.29
2024-02-03T13:49:05.121Z,99171.48
2024-02-03T13:51:34.694Z,99172.06
2024-02-03T13:54:02.366Z,99174.40
2024-02-03T13:56:29.420Z,99171.16
2024-02-03T13:58:56.345Z,99172.15
2024-02-03T14:01:26.761Z,99168.48
2024-02-03T14:03:53.571Z,99165.48
2024-02-03T14:06:20.542Z,99162.75
2024-02-03T14:08:47.300Z,99163.77
2024-02-03T14:11:15.496Z,99161.27
2024-02-03T14:13:43.764Z,99158.95
2024-02-03T14:16:15.580Z,99157.90
2024-02-03T14:18:42.328Z,99159.16
2024-02-03T14:21:09.100Z,99160.11
2024-02-03T14:23:35.831Z,99159.48
2024-02-03T14:26:04.563Z,99159.39
2024-02-03T14:28:33.409Z,99160.73
2024-02-03T14:31:00.206Z,99164.42
2024-02-03T14:33:27.294Z,99169.19
2024-02-03T14:35:54.635Z,99172.36
2024-02-03T14:38:21.889Z,99173.52
2024-02-03T14:40:49.419Z,99177.88
2024-02-03T14:43:16.378Z,99178.52
2024-02-03T14:45:43.240Z,99173.59
2024-02-03T14:48:10.013Z,99178.22
2024-02-03T14:50:36.739Z,99178.55
2024-02-03T14:53:03.618Z,99175.20
2024-02-03T14:55:30.370Z,99177.74
2024-02-03T14:57:57.069Z,99183.80
2024-02-03T15:00:24.957Z,99183.48
2024-02-03T15:02:51.794Z,99184.61
2024-02-03T15:05:18.616Z,99178.40
2024-02-03T15:07:46.983Z,99178.15
2024-02-03T15:10:13.885Z,99179.04
2024-02-03T15:12:40.547Z,99179.96
2024-02-03T15:15:07.354Z,99179.28
2024-02-03T15:17:34.143Z,99176.15
2024-02-03T15:20:01.004Z,99179.00
2024-02-03T15:22:27.740Z,99185.42
2024-02-03T15:24:54.373Z,99176.88
2024-02-03T15:27:21.167Z,99179.44
2024-02-03T15:29:47.840Z,99179.05
2024-02-03T15:32:14.610Z,99173.71
2024-02-03T15:34:41.496Z,99178.05
2024-02-03T15:37:08.474Z,99181.45
2024-02-03T15:39:35.304Z,99183.73
2024-02-03T15:42:02.126Z,99182.35
2024-02-03T15:44:38.253Z,99181.99
2024-02-03T15:47:08.677Z,99190.86
2024-02-03T15:49:35.453Z,99183.19
2024-02-03T15:52:03.608Z,99184.25
2024-02-03T15:54:30.906Z,99180.69
2024-02-03T15:56:57.653Z,99184.91
2024-02-03T15:59:24.279Z,99184.17
2024-02-03T16:01:51.051Z,99184.69
2024-02-03T16:04:18.002Z,99191.09
2024-02-03T16:06:44.920Z,99195.70
2024-02-03T16:09:11.854Z,99199.91
2024-02-03T16:11:38.521Z,99205.22
2024-02-03T16:14:05.203Z,99203.91
2024-02-03T16:16:31.891Z,99211.88
2024-02-03T16:18:58.677Z,99211.95
2024-02-03T16:21:25.452Z,99212.90
2024-02-03T16:23:52.138Z,99212.86
2024-02-03T16:26:19.403Z,99201.69
2024-02-03T16:28:46.109Z,99202.20
2024-02-03T16:31:13.434Z,99203.20
2024-02-03T16:33:40.657Z,99193.77
2024-02-03T16:36:07.737Z,99194.42
2024-02-03T16:38:34.874Z,99197.67
2024-02-03T16:41:01.590Z,99200.58
2024-02-03T16:43:28.626Z,99200.91
2024-02-03T16:45:55.395Z,99204.37
2024-02-03T16:48:22.871Z,99209.88
2024-02-03T16:50:49.716Z,99210.38
2024-02-03T16:53:16.871Z,99209.90
2024-02-03T16:55:43.529Z,99209.38
2024-02-03T16:58:10.253Z,99202.72
2024-02-03T17:00:40.754Z,99198.23
2024-02-03T17:03:08.410Z,99203.60
2024-02-03T17:05:35.532Z,99207.42
2024-02-03T17:08:02.381Z,99205.30
2024-02-03T17:10:29.158Z,99204.33
2024-02-03T17:12:56.393Z,99207.63
2024-02-03T17:15:23.342Z,99202.11
2024-02-03T17:17:50.182Z,99201.39
2024-02-03T17:20:17.027Z,99201.14
2024-02-03T17:22:44.275Z,99204.91
2024-02-03T17:25:11.512Z,99208.82
2024-02-03T17:27:38.733Z,99211.48
2024-02-03T17:30:06.895Z,99215.37
2024-02-03T17:32:34.696Z,99212.48
2024-02-03T17:35:05.482Z,99213.33
2024-02-03T17:37:33.199Z,99214.02
2024-02-03T17:39:59.989Z,99209.96
2024-02-03T17:42:26.967Z,99213.00
2024-02-03T17:44:54.034Z,99219.47
2024-02-03T17:47:23.869Z,99218.94
2024-02-03T17:49:50.945Z,99219.53
2024-02-03T17:52:19.232Z,99220.36
2024-02-03T17:54:50.969Z,99217.84
2024-02-03T17:57:17.740Z,99218.52
2024-02-03T17:59:45.073Z,99221.27
2024-02-03T18:02:13.214Z,99220.66
2024-02-03T18:04:40.206Z,99221.52
2024-02-03T18:07:07.140Z,99221.52
2024-02-03T18:09:33.731Z,99221.63
2024-02-03T18:12:00.428Z,99217.77
2024-02-03T18:14:27.144Z,99213.89
2024-02-03T18:16:53.834Z,99210.65
2024-02-03T18:19:21.210Z,99207.91
2024-02-03T18:21:48.360Z,99206.64
2024-02-03T18:24:16.022Z,99209.91
2024-02-03T18:26:42.871Z,99210.52
2024-02-03T18:29:10.376Z,99209.05
2024-02-03T18:31:37.164Z,99206.96
2024-02-03T18:34:04.270Z,99209.02
2024-02-03T18:36:31.516Z,99211.67
2024-02-03T18:38:59.369Z,99215.65
2024-02-03T18:41:25.973Z,99216.98
2024-02-03T18:43:52.733Z,99213.32
2024-02-03T18:46:19.535Z,99218.55
2024-02-03T18:48:46.516Z,99219.27
2024-02-03T18:51:13.298Z,99216.30
2024-02-03T18:53:39.948Z,99210.27
2024-02-03T18:56:07.049Z,99216.42
2024-02-03T18:58:33.790Z,99215.17
2024-02-03T19:01:03.118Z,99221.07
2024-02-03T19:03:30.179Z,99224.51
2024-02-03T19:05:57.080Z,99226.45
2024-02-03T19:08:25.235Z,99223.95
2024-02-03T19:10:52.595Z,99226.59
2024-02-03T19:13:19.538Z,99229.97
2024-02-03T19:15:46.417Z,99230.11
2024-02-03T19:18:13.177Z,99227.87
2024-02-03T19:20:40.186Z,99232.33
2024-02-03T19:23:06.882Z,99230.92
2024-02-03T19:25:33.399Z,99235.33
2024-02-03T19:28:00.059Z,99229.16
2024-02-03T19:30:26.685Z,99227.83
2024-02-03T19:32:53.335Z,99225.40
2024-02-03T19:35:20.414Z,99226.55
2024-02-03T19:37:47.250Z,99230.95
2024-02-03T19:40:14.649Z,99226.39
2024-02-03T19:42:41.974Z,99225.86
2024-02-03T19:45:09.251Z,99232.58
2024-02-03T19:47:35.962Z,99222.03
2024-02-03T19:50:05.617Z,99220.48
2024-02-03T19:52:33.107Z,99222.30
2024-02-03T19:54:59.879Z,99220.13
2024-02-03T19:57:26.879Z,99220.24
2024-02-03T19:59:53.684Z,99215.98
2024-02-03T20:02:20.572Z,99213.08
2024-02-03T20:04:47.581Z,99214.01
2024-02-03T20:07:15.385Z,99212.81
2024-02-03T20:09:42.521Z,99217.13
2024-02-03T20:12:09.818Z,99216.58
2024-02-03T20:14:39.065Z,99217.81
2024-02-03T20:17:05.779Z,99227.67
2024-02-03T20:19:33.054Z,99242.16
2024-02-03T20:22:00.212Z,99231.65
2024-02-03T20:24:28.192Z,99226.92
2024-02-03T20:26:55.805Z,99227.91
2024-02-03T20:29:22.518Z,99221.76
2024-02-03T20:31:49.361Z,99227.41
2024-02-03T20:34:18.466Z,99231.02
2024-02-03T20:36:46.814Z,99235.68
2024-02-03T20:39:14.437Z,99232.30
2024-02-03T20:41:42.903Z,99238.20
2024-02-03T20:44:09.773Z,99234.21
2024-02-03T20:49:04.944Z,99229.07
2024-02-03T20:51:31.951Z,99225.56
2024-02-03T20:53:58.781Z,99226.71
2024-02-03T20:56:25.669Z,99227.34
2024-02-03T20:58:52.326Z,99226.92
2024-02-03T21:01:19.284Z,99233.48
2024-02-03T21:03:47.229Z,99232.86
2024-02-03T21:06:15.771Z,99233.27
2024-02-03T21:08:43.041Z,99229.67
2024-02-03T21:11:09.816Z,99228.30
2024-02-03T21:13:37.192Z,99231.61
2024-02-03T21:16:04.566Z,99233.41
2024-02-03T21:18:31.824Z,99236.91
2024-02-03T21:20:58.892Z,99238.41
2024-02-03T21:23:25.789Z,99237.71
2024-02-03T21:25:52.612Z,99230.38
2024-02-03T21:28:19.361Z,99237.77
2024-02-03T21:30:46.160Z,99239.34
2024-02-03T21:33:13.034Z,99231.98
2024-02-03T21:35:39.866Z,99229.16
2024-02-03T21:38:06.558Z,99220.59
2024-02-03T21:40:33.570Z,99223.64
2024-02-03T21:43:00.752Z,99218.80
2024-02-03T21:45:27.506Z,99217.12
2024-02-03T21:47:54.330Z,99222.09
2024-02-03T21:50:20.990Z,99222.81
2024-02-03T21:53:57.665Z,99227.20
2024-02-03T21:56:25.226Z,99223.25
2024-02-03T21:58:52.753Z,99217.67
2024-02-03T22:01:20.642Z,99222.66
2024-02-03T22:03:53.248Z,99232.57
2024-02-03T22:06:22.770Z,99215.66
2024-02-03T22:08:50.375Z,99209.73
2024-02-03T22:11:17.938Z,99209.77
2024-02-03T22:13:45.587Z,99205.83
2024-02-03T22:16:12.981Z,99209.75
2024-02-03T22:18:40.626Z,99215.30
2024-02-03T22:21:08.305Z,99211.52
2024-02-03T22:23:37.713Z,99214.35
2024-02-03T22:26:05.507Z,99210.84
2024-02-03T22:28:33.192Z,99212.55
2024-02-03T22:31:00.765Z,99215.74
2024-02-03T22:33:29.283Z,99216.46
2024-02-03T22:35:56.997Z,99214.52
2024-02-03T22:38:24.411Z,99211.56
2024-02-03T22:40:51.808Z,99218.44
2024-02-03T22:43:19.476Z,99226.91
2024-02-03T22:45:47.580Z,99222.81
2024-02-03T22:48:15.129Z,99219.10
2024-02-03T22:50:42.703Z,99213.16
2024-02-03T22:53:10.268Z,99223.01
2024-02-03T22:55:37.778Z,99223.38
2024-02-03T22:58:05.421Z,99216.09
2024-02-03T23:00:36.014Z,99216.40
2024-02-03T23:03:09.226Z,99211.09
2024-02-03T23:05:37.664Z,99207.83
2024-02-03T23:08:05.566Z,99207.17
2024-02-03T23:10:33.080Z,99204.41
2024-02-03T23:13:00.590Z,99205.75
2024-02-03T23:15:28.195Z,99204.73
2024-02-03T23:17:56.164Z,99202.69
2024-02-03T23:20:23.668Z,99201.45
2024-02-03T23:22:51.295Z,99198.77
2024-02-03T23:25:18.956Z,99198.29
2024-02-03T23:27:46.578Z,99200.14
2024-02-03T23:30:14.275Z,99199.83
2024-02-03T23:32:41.978Z,99204.05
2024-02-03T23:35:10.063Z,99200.68
2024-02-03T23:37:37.797Z,99207.54
2024-02-03T23:40:08.223Z,99206.66
2024-02-03T23:42:36.060Z,99205.23
2024-02-03T23:45:03.824Z,99201.44
2024-02-03T23:47:31.420Z,99199.56
2024-02-03T23:49:58.992Z,99200.52
2024-02-03T23:52:26.846Z,99199.69
2024-02-03T23:54:54.345Z,99202.90
2024-02-03T23:57:22.005Z,99208.09
2024-02-03T23:59:50.114Z,99216.01
